createdAt,value
2019-03-15T00:00:40.608Z,5.30
2019-03-15T00:03:09.815Z,5.53
2019-03-15T00:05:38.966Z,5.37
2019-03-15T00:08:08.112Z,5.30
2019-03-15T00:10:37.288Z,5.40
2019-03-15T00:13:06.450Z,5.40
2019-03-15T00:15:35.697Z,4.83
2019-03-15T00:18:04.878Z,5.00
2019-03-15T00:20:34.218Z,4.87
2019-03-15T00:23:03.406Z,4.57
2019-03-15T00:25:32.544Z,4.10
2019-03-15T00:28:01.752Z,3.80
2019-03-15T00:30:30.903Z,5.33
2019-03-15T00:33:00.356Z,7.43
2019-03-15T00:35:29.487Z,3.23
2019-03-15T00:37:58.854Z,2.40
2019-03-15T00:40:28.694Z,2.27
2019-03-15T00:42:57.893Z,2.20
2019-03-15T00:45:27.045Z,1.80
2019-03-15T00:47:56.253Z,2.30
2019-03-15T00:50:25.387Z,1.60
2019-03-15T00:52:54.574Z,1.53
2019-03-15T00:55:23.733Z,1.40
2019-03-15T00:57:52.970Z,1.70
2019-03-15T01:00:22.286Z,1.50
2019-03-15T01:02:51.552Z,1.50
2019-03-15T01:05:20.727Z,1.40
2019-03-15T01:07:49.842Z,1.70
2019-03-15T01:10:19.061Z,1.37
2019-03-15T01:12:48.335Z,1.50
2019-03-15T01:15:17.485Z,1.50
2019-03-15T01:17:46.688Z,1.83
2019-03-15T01:20:15.849Z,1.50
2019-03-15T01:22:45.014Z,1.70
2019-03-15T01:25:14.294Z,1.87
2019-03-15T01:27:43.493Z,1.57
2019-03-15T01:30:12.701Z,1.43
2019-03-15T01:32:41.902Z,1.73
2019-03-15T01:35:11.202Z,1.27
2019-03-15T01:37:40.357Z,1.23
2019-03-15T01:40:09.674Z,1.20
2019-03-15T01:42:38.922Z,0.90
2019-03-15T01:45:08.235Z,1.40
2019-03-15T01:47:37.406Z,1.10
2019-03-15T01:50:06.777Z,1.00
2019-03-15T01:52:36.977Z,1.30
2019-03-15T01:55:06.169Z,1.30
2019-03-15T01:57:35.289Z,5.47
2019-03-15T02:00:04.914Z,2.57
2019-03-15T02:02:34.057Z,4.90
2019-03-15T02:05:03.137Z,1.30
2019-03-15T02:07:32.307Z,1.07
2019-03-15T02:10:01.429Z,1.17
2019-03-15T02:12:30.612Z,1.43
2019-03-15T02:14:59.718Z,1.43
2019-03-15T02:17:28.842Z,1.23
2019-03-15T02:19:57.994Z,1.13
2019-03-15T02:22:28.114Z,1.23
2019-03-15T02:24:57.222Z,1.40
2019-03-15T02:27:26.358Z,1.00
2019-03-15T02:29:55.522Z,1.40
2019-03-15T02:32:24.615Z,1.20
2019-03-15T02:34:54.043Z,1.20
2019-03-15T02:37:24.301Z,1.20
2019-03-15T02:39:59.504Z,1.30
2019-03-15T02:42:28.707Z,1.30
2019-03-15T02:44:57.843Z,1.20
2019-03-15T02:47:27.382Z,0.93
2019-03-15T02:49:56.567Z,1.00
2019-03-15T02:52:25.766Z,0.70
2019-03-15T02:54:55.008Z,0.50
2019-03-15T02:57:24.155Z,0.67
2019-03-15T02:59:53.279Z,0.70
2019-03-15T03:02:22.412Z,0.87
2019-03-15T03:04:51.627Z,0.77
2019-03-15T03:07:21.151Z,0.73
2019-03-15T03:09:50.488Z,0.50
2019-03-15T03:12:19.616Z,0.47
2019-03-15T03:14:48.758Z,0.50
2019-03-15T03:17:17.920Z,0.50
2019-03-15T03:19:47.132Z,0.70
2019-03-15T03:22:16.264Z,0.60
2019-03-15T03:24:45.485Z,0.60
2019-03-15T03:27:14.702Z,0.80
2019-03-15T03:29:43.831Z,0.40
2019-03-15T03:32:14.205Z,0.70
2019-03-15T03:34:43.680Z,0.70
2019-03-15T03:37:12.835Z,0.57
2019-03-15T03:39:41.997Z,0.43
2019-03-15T03:42:11.189Z,0.40
2019-03-15T03:44:40.349Z,0.50
2019-03-15T03:47:09.486Z,0.57
2019-03-15T03:49:38.836Z,0.40
2019-03-15T03:52:08.190Z,0.60
2019-03-15T03:54:37.342Z,0.70
2019-03-15T03:57:06.528Z,0.80
2019-03-15T03:59:35.789Z,0.50
2019-03-15T04:02:04.886Z,0.80
2019-03-15T04:04:34.029Z,0.60
2019-03-15T04:07:03.230Z,0.70
2019-03-15T04:09:32.455Z,0.70
2019-03-15T04:12:01.595Z,0.80
2019-03-15T04:14:30.744Z,0.90
2019-03-15T04:16:59.942Z,1.17
2019-03-15T04:19:29.073Z,1.23
2019-03-15T04:21:58.313Z,0.97
2019-03-15T04:24:27.433Z,1.20
2019-03-15T04:26:56.635Z,1.20
2019-03-15T04:29:25.812Z,1.30
2019-03-15T04:31:54.929Z,1.20
2019-03-15T04:34:24.064Z,1.00
2019-03-15T04:36:53.205Z,1.20
2019-03-15T04:39:22.326Z,1.20
2019-03-15T04:41:51.440Z,1.43
2019-03-15T04:44:20.577Z,1.10
2019-03-15T04:46:49.792Z,1.20
2019-03-15T04:49:18.933Z,1.23
2019-03-15T04:51:48.130Z,1.47
2019-03-15T04:54:17.345Z,1.30
2019-03-15T04:56:46.527Z,1.10
2019-03-15T04:59:15.733Z,1.53
2019-03-15T05:01:44.924Z,1.23
2019-03-15T05:04:14.136Z,1.50
2019-03-15T05:06:43.287Z,1.40
2019-03-15T05:09:12.406Z,1.60
2019-03-15T05:11:41.585Z,2.00
2019-03-15T05:14:10.704Z,1.27
2019-03-15T05:16:39.838Z,1.73
2019-03-15T05:19:09.097Z,1.60
2019-03-15T05:21:38.295Z,1.60
2019-03-15T05:24:07.595Z,1.40
2019-03-15T05:26:36.838Z,1.17
2019-03-15T05:29:06.084Z,1.30
2019-03-15T05:31:35.247Z,1.20
2019-03-15T05:34:04.462Z,1.67
2019-03-15T05:36:33.583Z,1.70
2019-03-15T05:39:02.848Z,1.70
2019-03-15T05:41:31.978Z,1.77
2019-03-15T05:44:01.150Z,2.10
2019-03-15T05:46:30.260Z,1.60
2019-03-15T05:48:59.502Z,1.80
2019-03-15T05:51:28.655Z,1.97
2019-03-15T05:53:57.800Z,1.93
2019-03-15T05:56:26.950Z,1.60
2019-03-15T05:58:56.156Z,1.87
2019-03-15T06:01:25.291Z,1.47
2019-03-15T06:03:54.417Z,1.50
2019-03-15T06:06:23.586Z,1.27
2019-03-15T06:08:52.772Z,1.10
2019-03-15T06:11:22.951Z,1.53
2019-03-15T06:13:52.245Z,1.30
2019-03-15T06:16:21.540Z,1.50
2019-03-15T06:18:50.850Z,1.20
2019-03-15T06:21:25.697Z,1.30
2019-03-15T06:23:54.795Z,0.90
2019-03-15T06:26:24.175Z,1.57
2019-03-15T06:28:53.306Z,0.97
2019-03-15T06:31:22.571Z,1.17
2019-03-15T06:33:51.710Z,1.10
2019-03-15T06:46:42.089Z,1.27
2019-03-15T06:49:11.275Z,1.17
2019-03-15T06:51:40.382Z,0.80
2019-03-15T06:54:11.668Z,1.10
2019-03-15T06:56:40.549Z,0.80
2019-03-15T06:59:09.865Z,0.80
2019-03-15T07:01:40.914Z,0.90
2019-03-15T07:04:10.188Z,0.67
2019-03-15T07:06:39.410Z,1.10
2019-03-15T07:09:08.630Z,0.90
2019-03-15T07:11:38.853Z,1.07
2019-03-15T07:14:07.991Z,0.70
2019-03-15T07:16:38.341Z,0.70
2019-03-15T07:19:07.678Z,0.90
2019-03-15T07:21:37.102Z,0.60
2019-03-15T07:24:06.369Z,0.80
2019-03-15T07:26:35.540Z,0.80
2019-03-15T07:29:04.674Z,0.50
2019-03-15T07:31:33.883Z,0.80
2019-03-15T07:34:03.045Z,0.47
2019-03-15T07:36:32.276Z,0.57
2019-03-15T07:39:01.491Z,0.60
2019-03-15T07:41:30.727Z,0.80
2019-03-15T07:43:59.850Z,0.77
2019-03-15T07:46:29.022Z,1.00
2019-03-15T07:48:58.236Z,0.77
2019-03-15T07:51:27.830Z,0.90
2019-03-15T07:53:57.027Z,0.67
2019-03-15T07:56:28.643Z,0.90
2019-03-15T07:58:57.223Z,0.80
2019-03-15T08:01:26.441Z,0.83
2019-03-15T08:03:55.603Z,0.73
2019-03-15T08:06:34.276Z,0.70
2019-03-15T08:08:55.662Z,1.07
2019-03-15T08:11:24.867Z,0.80
2019-03-15T08:13:54.140Z,0.97
2019-03-15T08:16:23.255Z,0.90
2019-03-15T08:18:52.382Z,0.70
2019-03-15T08:21:22.786Z,1.00
2019-03-15T08:23:52.010Z,1.10
2019-03-15T08:26:21.133Z,1.10
2019-03-15T08:28:50.278Z,0.90
2019-03-15T08:31:19.463Z,1.00
2019-03-15T08:33:48.764Z,0.80
2019-03-15T08:36:20.325Z,0.93
2019-03-15T08:38:48.803Z,1.13
2019-03-15T08:41:17.939Z,0.90
2019-03-15T08:43:47.134Z,1.00
2019-03-15T08:46:16.348Z,0.90
2019-03-15T08:48:45.482Z,0.97
2019-03-15T08:51:14.615Z,0.73
2019-03-15T08:53:43.834Z,0.90
2019-03-15T08:56:14.496Z,1.20
2019-03-15T08:58:44.170Z,2.33
2019-03-15T09:01:13.455Z,1.03
2019-03-15T09:03:42.779Z,1.00
2019-03-15T09:06:11.908Z,0.93
2019-03-15T09:08:41.031Z,0.90
2019-03-15T09:11:10.159Z,1.17
2019-03-15T09:13:39.341Z,1.10
2019-03-15T09:16:08.518Z,0.80
2019-03-15T09:18:37.656Z,1.07
2019-03-15T09:21:06.779Z,0.93
2019-03-15T09:23:36.026Z,0.80
2019-03-15T09:26:05.207Z,2.10
2019-03-15T09:28:34.379Z,0.70
2019-03-15T09:31:03.553Z,0.50
2019-03-15T09:33:32.715Z,0.80
2019-03-15T09:36:01.860Z,0.57
2019-03-15T09:38:30.991Z,0.80
2019-03-15T09:41:00.179Z,0.70
2019-03-15T09:43:29.406Z,1.00
2019-03-15T09:45:58.696Z,0.60
2019-03-15T09:48:27.847Z,0.67
2019-03-15T09:50:57.027Z,1.00
2019-03-15T09:53:26.296Z,0.70
2019-03-15T09:55:55.411Z,0.60
2019-03-15T09:58:24.935Z,0.67
2019-03-15T10:00:54.199Z,0.80
2019-03-15T10:03:23.351Z,0.80
2019-03-15T10:05:52.582Z,0.73
2019-03-15T10:08:23.646Z,1.20
2019-03-15T10:10:52.741Z,0.97
2019-03-15T10:13:22.111Z,0.93
2019-03-15T10:15:51.489Z,1.03
2019-03-15T10:18:20.852Z,0.90
2019-03-15T10:20:50.011Z,1.10
2019-03-15T10:23:19.420Z,1.03
2019-03-15T10:25:51.213Z,1.10
2019-03-15T10:28:19.399Z,0.97
2019-03-15T10:30:48.764Z,1.10
2019-03-15T10:33:17.879Z,1.30
2019-03-15T10:35:47.014Z,1.77
2019-03-15T10:38:16.851Z,2.20
2019-03-15T10:40:47.171Z,1.50
2019-03-15T10:43:16.489Z,1.67
2019-03-15T10:46:10.912Z,1.77
2019-03-15T10:48:40.066Z,1.07
2019-03-15T10:51:09.366Z,1.70
2019-03-15T10:53:38.498Z,1.53
2019-03-15T10:56:07.665Z,1.53
2019-03-15T10:58:36.808Z,1.47
2019-03-15T11:01:05.949Z,1.60
2019-03-15T11:03:35.071Z,1.50
2019-03-15T11:06:04.283Z,1.80
2019-03-15T11:08:33.377Z,1.80
2019-03-15T11:11:02.755Z,2.40
2019-03-15T11:13:32.110Z,1.80
2019-03-15T11:16:01.440Z,2.20
2019-03-15T11:18:30.656Z,1.70
2019-03-15T11:20:59.824Z,11.23
2019-03-15T11:23:29.120Z,2.87
2019-03-15T11:25:58.483Z,2.50
2019-03-15T11:28:27.814Z,2.83
2019-03-15T11:30:57.032Z,2.67
2019-03-15T11:33:26.279Z,4.03
2019-03-15T11:35:55.388Z,4.20
2019-03-15T11:38:24.580Z,7.47
2019-03-15T11:40:53.741Z,3.80
2019-03-15T11:43:22.821Z,3.43
2019-03-15T11:45:51.926Z,3.37
2019-03-15T11:48:21.013Z,3.63
2019-03-15T11:50:50.240Z,3.40
2019-03-15T11:53:19.440Z,3.30
2019-03-15T11:55:49.706Z,2.70
2019-03-15T11:58:18.789Z,3.57
2019-03-15T12:00:48.101Z,2.67
2019-03-15T12:03:17.338Z,2.70
2019-03-15T12:05:46.582Z,3.00
2019-03-15T12:08:15.703Z,2.23
2019-03-15T12:10:44.811Z,2.47
2019-03-15T12:13:13.922Z,2.37
2019-03-15T12:15:43.172Z,2.87
2019-03-15T12:18:12.336Z,3.00
2019-03-15T12:20:41.475Z,3.60
2019-03-15T12:23:10.587Z,3.07
2019-03-15T12:25:39.789Z,2.93
2019-03-15T12:28:08.948Z,3.20
2019-03-15T12:30:38.101Z,3.20
2019-03-15T12:33:07.229Z,3.10
2019-03-15T12:35:36.409Z,3.20
2019-03-15T12:38:05.603Z,2.87
2019-03-15T12:40:34.821Z,2.70
2019-03-15T12:43:04.055Z,2.87
2019-03-15T12:45:33.302Z,2.90
2019-03-15T12:48:02.659Z,2.90
2019-03-15T12:50:31.885Z,2.90
2019-03-15T12:53:00.995Z,2.50
2019-03-15T12:55:30.123Z,3.27
2019-03-15T12:57:59.319Z,2.53
2019-03-15T13:00:28.506Z,2.80
2019-03-15T13:02:57.619Z,2.50
2019-03-15T13:05:26.763Z,2.73
2019-03-15T13:07:55.881Z,2.67
2019-03-15T13:10:25.073Z,2.50
2019-03-15T13:12:54.356Z,2.50
2019-03-15T13:15:23.673Z,2.27
2019-03-15T13:17:52.841Z,2.17
2019-03-15T13:20:22.039Z,2.60
2019-03-15T13:22:51.521Z,2.20
2019-03-15T13:25:20.613Z,2.20
2019-03-15T13:27:49.729Z,2.23
2019-03-15T13:30:18.862Z,2.40
2019-03-15T13:32:47.970Z,2.47
2019-03-15T13:35:17.130Z,2.50
2019-03-15T13:37:46.286Z,2.57
2019-03-15T13:40:15.621Z,2.50
2019-03-15T13:42:45.144Z,2.77
2019-03-15T13:45:14.446Z,2.90
2019-03-15T13:47:43.593Z,2.60
2019-03-15T13:50:12.765Z,4.03
2019-03-15T13:52:42.973Z,3.23
2019-03-15T13:55:12.098Z,3.20
2019-03-15T13:57:41.338Z,3.10
2019-03-15T14:00:10.723Z,3.03
2019-03-15T14:02:39.880Z,2.90
2019-03-15T14:05:09.138Z,3.53
2019-03-15T14:07:38.284Z,3.20
2019-03-15T14:10:07.955Z,3.33
2019-03-15T14:12:37.171Z,3.90
2019-03-15T14:15:07.227Z,3.60
2019-03-15T14:17:36.473Z,4.17
2019-03-15T14:20:05.913Z,4.27
2019-03-15T14:22:35.256Z,4.03
2019-03-15T14:25:04.715Z,4.80
2019-03-15T14:27:37.710Z,4.27
2019-03-15T14:30:10.388Z,4.60
2019-03-15T14:32:39.803Z,5.67
2019-03-15T14:35:08.894Z,4.70
2019-03-15T14:37:38.330Z,5.50
2019-03-15T14:40:07.641Z,5.60
2019-03-15T14:42:36.944Z,6.10
2019-03-15T14:45:06.855Z,5.60
2019-03-15T14:47:36.105Z,6.13
2019-03-15T14:50:06.281Z,5.80
2019-03-15T14:52:35.544Z,6.00
2019-03-15T14:55:04.858Z,4.50
2019-03-15T14:57:35.043Z,3.90
2019-03-15T15:00:10.829Z,2.90
2019-03-15T15:02:38.488Z,3.17
2019-03-15T15:05:08.303Z,3.10
2019-03-15T15:07:37.447Z,3.20
2019-03-15T15:10:07.011Z,3.03
2019-03-15T15:12:36.153Z,3.40
2019-03-15T15:15:05.638Z,3.07
2019-03-15T15:17:35.899Z,3.30
2019-03-15T15:20:06.478Z,3.40
2019-03-15T15:22:35.590Z,3.73
2019-03-15T15:25:04.941Z,3.50
2019-03-15T15:27:34.068Z,3.20
2019-03-15T15:30:03.617Z,3.00
2019-03-15T15:32:34.377Z,2.80
2019-03-15T15:35:03.643Z,2.80
2019-03-15T15:37:32.891Z,3.30
2019-03-15T15:40:01.967Z,3.13
2019-03-15T15:42:31.103Z,2.77
2019-03-15T15:45:00.398Z,2.63
2019-03-15T15:47:29.547Z,2.53
2019-03-15T15:49:58.639Z,2.90
2019-03-15T15:52:27.740Z,2.93
2019-03-15T15:54:56.973Z,3.50
2019-03-15T15:57:26.117Z,3.43
2019-03-15T15:59:55.193Z,3.30
2019-03-15T16:02:24.323Z,3.10
2019-03-15T16:04:53.481Z,3.00
2019-03-15T16:07:22.598Z,2.53
2019-03-15T16:09:51.791Z,2.47
2019-03-15T16:12:21.007Z,2.67
2019-03-15T16:14:50.102Z,2.17
2019-03-15T16:17:19.343Z,2.63
2019-03-15T16:19:48.445Z,2.30
2019-03-15T16:22:17.593Z,2.07
2019-03-15T16:24:46.791Z,1.80
2019-03-15T16:27:15.889Z,2.50
2019-03-15T16:29:44.996Z,1.63
2019-03-15T16:32:14.278Z,1.50
2019-03-15T16:34:43.646Z,1.60
2019-03-15T16:37:12.774Z,2.17
2019-03-15T16:39:41.876Z,1.87
2019-03-15T16:42:11.163Z,1.70
2019-03-15T16:44:40.249Z,1.63
2019-03-15T16:47:09.471Z,1.60
2019-03-15T16:49:38.729Z,1.83
2019-03-15T16:52:07.870Z,1.83
2019-03-15T16:54:40.249Z,1.77
2019-03-15T16:57:09.372Z,1.70
2019-03-15T16:59:38.819Z,1.70
2019-03-15T17:02:08.011Z,2.00
2019-03-15T17:04:37.145Z,1.70
2019-03-15T17:07:06.301Z,1.90
2019-03-15T17:09:35.367Z,1.40
2019-03-15T17:12:04.540Z,2.00
2019-03-15T17:14:33.930Z,2.13
2019-03-15T17:17:03.065Z,1.83
2019-03-15T17:19:32.200Z,2.00
2019-03-15T17:22:01.393Z,2.10
2019-03-15T17:24:31.638Z,1.90
2019-03-15T17:27:00.783Z,2.10
2019-03-15T17:29:29.905Z,2.60
2019-03-15T17:31:59.092Z,2.17
2019-03-15T17:34:28.301Z,1.97
2019-03-15T17:37:06.510Z,1.87
2019-03-15T17:39:28.261Z,1.73
2019-03-15T17:41:57.503Z,2.67
2019-03-15T17:44:26.770Z,1.80
2019-03-15T17:46:55.888Z,2.07
2019-03-15T17:49:25.124Z,2.20
2019-03-15T17:51:54.291Z,1.77
2019-03-15T17:54:23.517Z,2.30
2019-03-15T17:56:52.880Z,1.90
2019-03-15T17:59:22.425Z,1.60
2019-03-15T18:01:51.680Z,1.93
2019-03-15T18:04:20.892Z,1.93
2019-03-15T18:06:50.077Z,2.30
2019-03-15T18:09:19.257Z,1.87
2019-03-15T18:11:48.432Z,1.97
2019-03-15T18:14:17.602Z,1.83
2019-03-15T18:16:46.709Z,1.87
2019-03-15T18:19:15.959Z,1.97
2019-03-15T18:21:45.063Z,2.27
2019-03-15T18:24:14.190Z,1.83
2019-03-15T18:26:43.299Z,1.90
2019-03-15T18:29:25.430Z,1.80
2019-03-15T18:31:43.446Z,2.13
2019-03-15T18:34:12.567Z,2.17
2019-03-15T18:36:43.052Z,2.50
2019-03-15T18:39:12.440Z,1.80
2019-03-15T18:41:41.606Z,1.73
2019-03-15T18:44:10.734Z,1.83
2019-03-15T18:46:39.851Z,1.60
2019-03-15T18:49:08.985Z,2.00
2019-03-15T18:51:38.122Z,1.90
2019-03-15T18:54:17.082Z,2.23
2019-03-15T18:56:38.057Z,2.20
2019-03-15T18:59:07.326Z,2.30
2019-03-15T19:01:36.653Z,1.70
2019-03-15T19:04:05.796Z,1.70
2019-03-15T19:06:34.903Z,1.90
2019-03-15T19:09:05.823Z,1.80
2019-03-15T19:11:34.941Z,2.20
2019-03-15T19:14:04.154Z,1.97
2019-03-15T19:16:33.283Z,2.00
2019-03-15T19:19:02.508Z,2.37
2019-03-15T19:21:31.747Z,2.03
2019-03-15T19:24:00.851Z,2.00
2019-03-15T19:26:30.096Z,2.20
2019-03-15T19:28:59.222Z,1.67
2019-03-15T19:31:28.362Z,1.70
2019-03-15T19:33:57.459Z,2.00
2019-03-15T19:36:26.542Z,2.20
2019-03-15T19:38:55.689Z,2.00
2019-03-15T19:41:24.804Z,2.30
2019-03-15T19:43:54.017Z,2.10
2019-03-15T19:46:23.126Z,2.00
2019-03-15T19:48:52.839Z,1.43
2019-03-15T19:51:21.934Z,2.00
2019-03-15T19:53:51.060Z,1.90
2019-03-15T19:56:20.160Z,2.27
2019-03-15T19:58:49.261Z,1.63
2019-03-15T20:01:18.353Z,1.77
2019-03-15T20:03:47.511Z,1.80
2019-03-15T20:06:16.609Z,1.20
2019-03-15T20:08:45.740Z,1.37
2019-03-15T20:11:15.140Z,1.43
2019-03-15T20:13:44.265Z,1.50
2019-03-15T20:16:13.439Z,1.43
2019-03-15T20:18:42.585Z,1.07
2019-03-15T20:21:11.728Z,1.23
2019-03-15T20:23:41.899Z,1.40
2019-03-15T20:26:12.019Z,1.00
2019-03-15T20:28:41.265Z,0.87
2019-03-15T20:31:10.408Z,1.10
2019-03-15T20:33:39.601Z,1.27
2019-03-15T20:36:08.809Z,1.23
2019-03-15T20:38:37.904Z,1.27
2019-03-15T20:41:07.064Z,1.70
2019-03-15T20:43:36.190Z,1.33
2019-03-15T20:46:05.317Z,1.20
2019-03-15T20:48:34.436Z,1.50
2019-03-15T20:51:04.735Z,1.47
2019-03-15T20:53:33.856Z,1.70
2019-03-15T20:56:03.004Z,1.70
2019-03-15T20:58:32.086Z,1.70
2019-03-15T21:01:01.205Z,1.73
2019-03-15T21:03:30.315Z,1.30
2019-03-15T21:05:59.491Z,2.07
2019-03-15T21:08:28.671Z,1.80
2019-03-15T21:10:57.792Z,1.70
2019-03-15T21:13:26.913Z,1.60
2019-03-15T21:15:56.027Z,1.30
2019-03-15T21:18:25.125Z,1.60
2019-03-15T21:20:54.250Z,1.80
2019-03-15T21:23:23.359Z,1.50
2019-03-15T21:25:52.475Z,1.30
2019-03-15T21:28:21.570Z,1.23
2019-03-15T21:30:50.737Z,1.10
2019-03-15T21:33:19.974Z,1.47
2019-03-15T21:35:49.241Z,1.40
2019-03-15T21:38:18.358Z,1.20
2019-03-15T21:40:47.476Z,1.77
2019-03-15T21:43:16.607Z,1.30
2019-03-15T21:45:45.755Z,1.57
2019-03-15T21:48:14.889Z,1.47
2019-03-15T21:50:44.020Z,1.70
2019-03-15T21:53:13.221Z,1.57
2019-03-15T21:55:42.351Z,1.73
2019-03-15T21:58:11.464Z,1.43
2019-03-15T22:00:41.242Z,1.30
2019-03-15T22:03:10.510Z,1.87
2019-03-15T22:05:40.096Z,1.63
2019-03-15T22:08:09.848Z,1.67
2019-03-15T22:10:39.157Z,1.37
2019-03-15T22:13:08.286Z,2.80
2019-03-15T22:15:37.885Z,1.90
2019-03-15T22:18:07.472Z,2.10
2019-03-15T22:20:36.707Z,3.17
2019-03-15T22:23:05.868Z,3.70
2019-03-15T22:25:35.481Z,1.70
2019-03-15T22:28:05.193Z,1.37
2019-03-15T22:30:34.500Z,1.70
2019-03-15T22:33:03.642Z,1.87
2019-03-15T22:35:32.781Z,1.83
2019-03-15T22:38:01.952Z,1.67
2019-03-15T22:40:31.225Z,1.50
2019-03-15T22:43:00.563Z,2.30
2019-03-15T22:45:29.745Z,1.90
2019-03-15T22:47:58.873Z,2.00
2019-03-15T22:50:28.002Z,1.97
2019-03-15T22:52:57.151Z,1.87
2019-03-15T22:55:26.802Z,1.97
2019-03-15T22:58:00.196Z,1.90
2019-03-15T23:00:32.163Z,1.73
2019-03-15T23:03:03.540Z,1.80
2019-03-15T23:05:33.386Z,1.93
2019-03-15T23:08:02.569Z,2.00
2019-03-15T23:10:32.367Z,1.90
2019-03-15T23:13:01.989Z,2.00
2019-03-15T23:15:31.618Z,1.77
2019-03-15T23:18:02.240Z,1.73
2019-03-15T23:20:31.428Z,1.80
2019-03-15T23:23:01.021Z,1.50
2019-03-15T23:25:30.256Z,1.50
2019-03-15T23:27:59.428Z,1.53
2019-03-15T23:30:28.537Z,1.57
2019-03-15T23:32:57.635Z,1.57
2019-03-15T23:35:26.751Z,1.87
2019-03-15T23:37:55.866Z,1.77
2019-03-15T23:40:24.985Z,1.40
2019-03-15T23:42:54.118Z,1.70
2019-03-15T23:45:23.231Z,1.30
2019-03-15T23:47:52.371Z,1.80
2019-03-15T23:50:21.929Z,1.67
2019-03-15T23:52:51.577Z,1.63
2019-03-15T23:55:21.203Z,2.00
2019-03-15T23:57:50.421Z,1.70
